Terminal Aerodrome Forecast
Issued by NWS

Home | Current Version | Previous Version | Text Only | Print | Product List | Glossary On
Versions: 1 2 3 4 5 6 7 8 9 10 11 12 13 14
962
FTUS44 KLIX 272342
TAFMCB
TAF
KMCB 272342Z 2800/2824 VRB06KT P6SM SCT023 SCT045 BKN050
     FM280300 15007KT P6SM BKN025
     FM280600 17008KT P6SM BKN008
      TEMPO 2810/2814 BKN003
     FM281600 18011KT P6SM BKN015
     FM281900 18012KT P6SM BKN035=

USA.gov is the U.S. government's official web portal to all federal, state and local government web resources and services.